Time;durP1;ratioP1;P1;durP2;ratioP2;P2;SDS_P1;SDS_P2;PMS_P1;PMS_P2;Temp;Humidity;BMP_temperature;BMP_pressure;BME280_temperature;BME280_humidity;BME280_pressure;Samples;Min_cycle;Max_cycle;Signal;HPM_P1;HPM_P2
2022/09/07 00:01:21;;;;;;;7.83;7.33;;;18.70;99.90;;;;;;5030276;28;20394;-80
2022/09/07 00:03:47;;;;;;;7.70;6.90;;;18.60;99.90;;;;;;5030400;28;20178;-81
2022/09/07 00:06:13;;;;;;;6.97;6.57;;;18.60;99.90;;;;;;5030673;28;20290;-83
2022/09/07 00:08:40;;;;;;;9.13;8.43;;;18.60;99.90;;;;;;5028887;28;20180;-83
2022/09/07 00:11:11;;;;;;;9.23;8.53;;;18.60;99.90;;;;;;5030136;28;20242;-82
2022/09/07 00:13:38;;;;;;;9.33;8.43;;;18.50;99.90;;;;;;5030247;28;20168;-82
2022/09/07 00:16:07;;;;;;;9.50;8.70;;;18.50;99.90;;;;;;5030498;28;20218;-83
2022/09/07 00:18:33;;;;;;;8.73;8.13;;;18.50;99.90;;;;;;5029205;28;20172;-83
2022/09/07 00:21:00;;;;;;;9.03;8.30;;;18.40;99.90;;;;;;5030557;28;20695;-82
2022/09/07 00:23:29;;;;;;;8.77;8.17;;;18.50;99.90;;;;;;5030175;28;20521;-83
2022/09/07 00:26:03;;;;;;;8.90;8.10;;;18.40;99.90;;;;;;5029982;28;20234;-82
2022/09/07 00:28:29;;;;;;;9.33;8.63;;;18.50;99.90;;;;;;5029063;28;20245;-82
2022/09/07 00:30:55;;;;;;;8.83;8.23;;;18.40;99.90;;;;;;5033293;28;20255;-82
2022/09/07 00:33:21;;;;;;;9.10;8.50;;;18.40;99.90;;;;;;5034327;28;20651;-82
2022/09/07 00:35:47;;;;;;;8.53;8.03;;;18.40;99.90;;;;;;5033893;28;20239;-82
2022/09/07 00:38:13;;;;;;;9.87;9.00;;;18.40;99.90;;;;;;5034774;28;20511;-82
2022/09/07 00:40:39;;;;;;;9.57;8.87;;;18.30;99.90;;;;;;5034478;28;20177;-83
2022/09/07 00:43:06;;;;;;;9.90;9.10;;;18.30;99.90;;;;;;5032741;28;20600;-81
2022/09/07 00:45:32;;;;;;;10.43;9.63;;;18.30;99.90;;;;;;5034037;28;20176;-82
2022/09/07 00:48:03;;;;;;;9.63;8.93;;;18.30;99.90;;;;;;5033834;28;20173;-81
2022/09/07 00:50:42;;;;;;;9.83;9.03;;;18.30;99.90;;;;;;5032498;28;20204;-83
2022/09/07 00:53:34;;;;;;;10.50;9.70;;;18.30;99.90;;;;;;5034836;28;20176;-82
2022/09/07 00:56:01;;;;;;;11.33;10.53;;;18.30;99.90;;;;;;5043700;28;20165;-83
2022/09/07 00:58:28;;;;;;;11.83;10.60;;;18.20;99.90;;;;;;5033750;28;20204;-83
2022/09/07 01:00:55;;;;;;;13.23;12.03;;;18.20;99.90;;;;;;5034019;28;20284;-82
2022/09/07 01:03:27;;;;;;;14.20;13.07;;;18.20;99.90;;;;;;5034600;28;20168;-82
2022/09/07 01:06:05;;;;;;;15.87;12.90;;;18.20;99.90;;;;;;5051417;28;20185;-83
2022/09/07 01:08:31;;;;;;;15.07;13.77;;;18.20;99.90;;;;;;5057659;28;20226;-82
2022/09/07 01:10:59;;;;;;;14.37;13.17;;;18.10;99.90;;;;;;5037657;28;20203;-82
2022/09/07 01:13:26;;;;;;;14.80;13.57;;;18.00;99.90;;;;;;5035037;28;20180;-82
2022/09/07 01:16:22;;;;;;;13.70;12.60;;;18.00;99.90;;;;;;5032764;28;20226;-83
2022/09/07 01:19:24;;;;;;;13.13;12.03;;;18.00;99.90;;;;;;5034601;28;20237;-82
2022/09/07 01:22:26;;;;;;;13.63;12.47;;;18.00;99.90;;;;;;5035752;28;20525;-80
2022/09/07 01:25:28;;;;;;;12.83;11.77;;;18.00;99.90;;;;;;5034693;28;20168;-81
2022/09/07 01:28:19;;;;;;;13.07;11.97;;;18.00;99.90;;;;;;5056214;28;20148;-81
2022/09/07 01:31:00;;;;;;;13.33;12.23;;;18.00;99.90;;;;;;5049529;28;20205;-82
2022/09/07 01:33:44;;;;;;;13.77;12.57;;;18.00;99.90;;;;;;5033110;28;20570;-81
2022/09/07 01:36:25;;;;;;;13.77;12.37;;;18.00;99.90;;;;;;5032907;28;20228;-82
2022/09/07 01:39:01;;;;;;;12.63;11.63;;;18.00;99.90;;;;;;5032863;28;20165;-81
2022/09/07 01:41:48;;;;;;;14.17;12.97;;;18.00;99.90;;;;;;5030588;28;20548;-80
2022/09/07 01:44:23;;;;;;;12.80;11.77;;;18.00;99.90;;;;;;5032807;28;20164;-80
2022/09/07 01:47:06;;;;;;;13.47;12.37;;;17.90;99.90;;;;;;5032802;28;20176;-81
2022/09/07 01:49:55;;;;;;;11.63;10.63;;;17.90;99.90;;;;;;5032729;28;20160;-80
2022/09/07 01:52:30;;;;;;;10.63;9.73;;;18.00;99.90;;;;;;5032804;28;20168;-82
2022/09/07 01:55:21;;;;;;;11.00;10.03;;;18.00;99.90;;;;;;5032561;28;20164;-82
2022/09/07 01:58:12;;;;;;;10.50;9.50;;;18.00;99.90;;;;;;5031404;28;20215;-82
2022/09/07 02:00:43;;;;;;;10.60;9.50;;;17.90;99.90;;;;;;5032485;28;20169;-83
2022/09/07 02:03:18;;;;;;;10.33;9.57;;;18.00;99.90;;;;;;5032326;28;20160;-83
2022/09/07 02:05:52;;;;;;;10.13;9.33;;;17.90;99.90;;;;;;5032478;28;20225;-83
2022/09/07 02:08:53;;;;;;;9.60;8.90;;;17.90;99.90;;;;;;5032438;28;20178;-82
2022/09/07 02:11:23;;;;;;;9.97;9.20;;;17.90;99.90;;;;;;5030882;28;20707;-81
2022/09/07 02:14:02;;;;;;;9.43;8.73;;;17.90;99.90;;;;;;5032194;28;20175;-81
2022/09/07 02:16:29;;;;;;;10.70;9.90;;;17.90;99.90;;;;;;5034098;28;20164;-81
2022/09/07 02:19:05;;;;;;;10.00;9.03;;;17.80;99.90;;;;;;5030738;28;20181;-81
2022/09/07 02:21:39;;;;;;;9.93;9.03;;;17.80;99.90;;;;;;5031412;28;20176;-81
2022/09/07 02:24:12;;;;;;;9.63;8.93;;;17.80;99.90;;;;;;5031981;28;20170;-81
2022/09/07 02:26:39;;;;;;;9.27;8.63;;;17.80;99.90;;;;;;5031942;28;20172;-81
2022/09/07 02:29:06;;;;;;;9.73;8.93;;;17.80;99.90;;;;;;5031821;28;20187;-81
2022/09/07 02:31:32;;;;;;;9.57;8.80;;;17.70;99.90;;;;;;5030547;28;20220;-81
2022/09/07 02:34:00;;;;;;;9.67;8.87;;;17.80;99.90;;;;;;5031734;28;20179;-81
2022/09/07 02:36:30;;;;;;;10.07;9.17;;;17.80;99.90;;;;;;5031505;28;20274;-81
2022/09/07 02:38:56;;;;;;;9.40;8.70;;;17.80;99.90;;;;;;5032222;28;20172;-82
2022/09/07 02:41:30;;;;;;;9.27;8.47;;;17.70;99.90;;;;;;5031927;28;20250;-81
2022/09/07 02:43:57;;;;;;;9.57;8.90;;;17.70;99.90;;;;;;5031656;28;20288;-81
2022/09/07 02:46:48;;;;;;;9.67;8.80;;;17.70;99.90;;;;;;5031811;28;20180;-81
2022/09/07 02:49:34;;;;;;;8.63;8.03;;;17.80;99.90;;;;;;5031645;28;20525;-82
2022/09/07 02:52:11;;;;;;;10.03;9.13;;;17.80;99.90;;;;;;5031602;28;20188;-81
2022/09/07 02:55:01;;;;;;;8.97;8.27;;;17.80;99.90;;;;;;5048065;28;20214;-81
2022/09/07 02:57:48;;;;;;;8.77;8.13;;;17.80;99.90;;;;;;5055383;28;20461;-80
2022/09/07 03:00:24;;;;;;;8.37;7.77;;;17.70;99.90;;;;;;5037180;28;20163;-81
2022/09/07 03:03:07;;;;;;;9.27;8.23;;;17.70;99.90;;;;;;5033815;28;20275;-80
2022/09/07 03:05:41;;;;;;;8.90;8.30;;;17.70;99.90;;;;;;5041908;28;20183;-81
2022/09/07 03:08:19;;;;;;;8.57;7.97;;;17.70;99.90;;;;;;5038608;28;20178;-81
2022/09/07 03:10:45;;;;;;;8.13;7.60;;;17.80;99.90;;;;;;5031486;28;20240;-81
2022/09/07 03:13:23;;;;;;;8.67;8.07;;;17.80;99.90;;;;;;5031220;28;20175;-80
2022/09/07 03:15:49;;;;;;;8.97;8.07;;;17.80;99.90;;;;;;5030893;28;20176;-80
2022/09/07 03:18:15;;;;;;;8.77;8.07;;;17.80;99.90;;;;;;5031332;28;20173;-83
2022/09/07 03:20:41;;;;;;;9.33;8.57;;;17.80;99.90;;;;;;5030998;28;20212;-83
2022/09/07 03:23:07;;;;;;;9.07;8.43;;;17.60;99.90;;;;;;5030853;28;20183;-81
2022/09/07 03:25:33;;;;;;;8.60;8.00;;;17.60;99.90;;;;;;5030745;28;20180;-81
2022/09/07 03:27:59;;;;;;;8.97;8.20;;;17.70;99.90;;;;;;5030710;28;20185;-81
2022/09/07 03:30:25;;;;;;;8.80;8.10;;;17.70;99.90;;;;;;5030956;28;21049;-81
2022/09/07 03:32:51;;;;;;;8.67;8.17;;;17.70;99.90;;;;;;5030994;28;20177;-81
2022/09/07 03:35:17;;;;;;;9.03;8.23;;;17.70;99.90;;;;;;5030441;28;20235;-81
2022/09/07 03:37:43;;;;;;;8.57;7.90;;;17.70;99.90;;;;;;5030918;28;20165;-80
2022/09/07 03:40:11;;;;;;;8.23;7.50;;;17.70;99.90;;;;;;5030403;28;20698;-80
2022/09/07 03:42:38;;;;;;;8.50;7.53;;;17.60;99.90;;;;;;5030417;28;20180;-81
2022/09/07 03:45:05;;;;;;;8.30;7.60;;;17.70;99.90;;;;;;5030539;28;20172;-80
2022/09/07 03:47:33;;;;;;;8.63;7.73;;;17.70;99.90;;;;;;5030556;28;20173;-80
2022/09/07 03:49:59;;;;;;;8.70;7.90;;;17.60;99.90;;;;;;5030148;28;20207;-80
2022/09/07 03:52:25;;;;;;;9.87;8.90;;;17.60;99.90;;;;;;5030459;28;20173;-81
2022/09/07 03:54:51;;;;;;;8.27;7.70;;;17.60;99.90;;;;;;5030575;28;20171;-80
2022/09/07 03:57:19;;;;;;;8.37;7.67;;;17.60;99.90;;;;;;5028963;28;20180;-80
2022/09/07 03:59:45;;;;;;;8.10;7.50;;;17.60;99.90;;;;;;5030738;28;20691;-80
2022/09/07 04:02:12;;;;;;;7.87;7.30;;;17.60;99.90;;;;;;5028986;28;20171;-80
2022/09/07 04:04:37;;;;;;;8.13;7.43;;;17.60;99.90;;;;;;5029491;28;20196;-81
2022/09/07 04:07:05;;;;;;;8.67;7.97;;;17.70;99.90;;;;;;5030215;28;20682;-80
2022/09/07 04:09:31;;;;;;;8.40;7.80;;;17.70;99.90;;;;;;5030370;28;20172;-81
2022/09/07 04:11:57;;;;;;;8.97;8.27;;;17.70;99.90;;;;;;5030153;28;20611;-81
2022/09/07 04:14:22;;;;;;;8.50;7.80;;;17.60;99.90;;;;;;5028978;28;20176;-81
2022/09/07 04:16:49;;;;;;;9.67;8.97;;;17.60;99.90;;;;;;5030353;28;20183;-81
2022/09/07 04:19:16;;;;;;;9.00;8.30;;;17.60;99.90;;;;;;5030324;28;20175;-81
2022/09/07 04:21:43;;;;;;;8.73;8.07;;;17.60;99.90;;;;;;5028836;28;20184;-82
2022/09/07 04:24:09;;;;;;;8.93;8.23;;;17.60;99.90;;;;;;5030132;28;20587;-82
2022/09/07 04:26:35;;;;;;;9.00;8.20;;;17.70;99.90;;;;;;5029212;28;20192;-81
2022/09/07 04:29:02;;;;;;;8.67;7.93;;;17.60;99.90;;;;;;5030274;28;20210;-81
2022/09/07 04:31:29;;;;;;;8.90;8.20;;;17.60;99.90;;;;;;5031035;28;20216;-81
2022/09/07 04:33:55;;;;;;;8.63;7.87;;;17.60;99.90;;;;;;5031237;28;20172;-82
2022/09/07 04:36:23;;;;;;;9.33;8.63;;;17.60;99.90;;;;;;5031414;28;20237;-81
2022/09/07 04:38:54;;;;;;;8.67;7.93;;;17.60;99.90;;;;;;5031628;28;20177;-80
2022/09/07 04:41:20;;;;;;;9.67;8.27;;;17.60;99.90;;;;;;5037753;28;20179;-81
2022/09/07 04:43:47;;;;;;;10.37;9.57;;;17.50;99.90;;;;;;5054415;28;20164;-81
2022/09/07 04:46:25;;;;;;;9.80;8.90;;;17.50;99.90;;;;;;5048483;28;20189;-79
2022/09/07 04:48:53;;;;;;;10.27;9.37;;;17.50;99.90;;;;;;5040181;28;20505;-83
2022/09/07 04:51:20;;;;;;;10.83;10.03;;;17.50;99.90;;;;;;5033200;28;20655;-84
2022/09/07 04:53:51;;;;;;;10.30;9.50;;;17.60;99.90;;;;;;5031842;28;20175;-83
2022/09/07 04:56:18;;;;;;;10.90;10.03;;;17.60;99.90;;;;;;5030463;28;20204;-81
2022/09/07 04:58:45;;;;;;;10.30;9.50;;;17.60;99.90;;;;;;5028581;28;20188;-80
2022/09/07 05:01:16;;;;;;;10.10;9.40;;;17.70;99.90;;;;;;5030836;28;20211;-80
2022/09/07 05:03:43;;;;;;;11.00;9.90;;;17.70;99.90;;;;;;5030172;28;20165;-81
2022/09/07 05:06:09;;;;;;;11.00;10.00;;;17.70;99.90;;;;;;5029573;28;20181;-80
2022/09/07 05:08:47;;;;;;;11.27;10.27;;;17.80;99.90;;;;;;5028433;28;20679;-82
2022/09/07 05:11:14;;;;;;;11.67;10.47;;;17.80;99.90;;;;;;5029548;28;20196;-82
2022/09/07 05:13:40;;;;;;;11.13;10.23;;;17.90;99.90;;;;;;5029524;28;20165;-81
2022/09/07 05:16:08;;;;;;;11.10;10.20;;;17.90;99.90;;;;;;5030610;28;20176;-81
2022/09/07 05:18:34;;;;;;;10.17;9.13;;;17.80;99.90;;;;;;5033278;28;20177;-81
2022/09/07 05:21:12;;;;;;;8.53;7.93;;;17.80;99.90;;;;;;5032130;28;20675;-81
2022/09/07 05:23:38;;;;;;;10.63;8.90;;;17.90;99.90;;;;;;5033926;28;20168;-81
2022/09/07 05:26:04;;;;;;;10.10;9.10;;;17.80;99.90;;;;;;5031839;28;20189;-81
2022/09/07 05:28:31;;;;;;;8.87;8.07;;;17.80;99.90;;;;;;5033039;28;20187;-81
2022/09/07 05:31:15;;;;;;;10.00;8.97;;;17.80;99.90;;;;;;5034294;28;20215;-81
2022/09/07 05:33:45;;;;;;;8.80;8.17;;;17.80;99.90;;;;;;5035018;28;20168;-80
2022/09/07 05:36:10;;;;;;;9.30;8.60;;;17.90;99.90;;;;;;5031640;28;20298;-81
2022/09/07 05:38:36;;;;;;;8.97;8.27;;;17.90;99.90;;;;;;5032862;28;20853;-81
2022/09/07 05:41:21;;;;;;;8.93;8.23;;;17.90;99.90;;;;;;5031620;28;20172;-81
2022/09/07 05:43:47;;;;;;;9.30;8.47;;;18.00;99.90;;;;;;5031314;28;20314;-81
2022/09/07 05:46:14;;;;;;;9.00;8.27;;;18.10;99.90;;;;;;5032793;28;20176;-81
2022/09/07 05:48:41;;;;;;;8.90;8.10;;;18.10;99.90;;;;;;5032603;28;20303;-80
2022/09/07 05:51:07;;;;;;;16.63;15.20;;;18.10;99.90;;;;;;5032684;28;20533;-81
2022/09/07 05:53:34;;;;;;;11.33;10.43;;;18.10;99.90;;;;;;5032746;28;20179;-81
2022/09/07 05:56:01;;;;;;;10.30;9.40;;;18.20;99.90;;;;;;5032421;28;20176;-81
2022/09/07 05:58:28;;;;;;;10.10;9.30;;;18.30;99.90;;;;;;5031231;28;20186;-81
2022/09/07 06:01:04;;;;;;;9.83;8.63;;;18.30;99.90;;;;;;5032589;28;20643;-82
2022/09/07 06:03:31;;;;;;;13.90;9.50;;;18.40;99.90;;;;;;5032616;28;20163;-80
2022/09/07 06:06:17;;;;;;;10.47;9.47;;;18.40;99.90;;;;;;5032468;28;20214;-82
2022/09/07 06:08:46;;;;;;;9.87;9.07;;;18.50;99.90;;;;;;5031394;28;20214;-82
2022/09/07 06:11:15;;;;;;;10.17;9.17;;;18.50;99.90;;;;;;5032025;28;20204;-81
2022/09/07 06:13:41;;;;;;;10.40;9.50;;;18.50;99.90;;;;;;5033471;28;20231;-80
2022/09/07 06:16:09;;;;;;;11.20;10.20;;;18.60;99.90;;;;;;5032101;28;20188;-81
2022/09/07 06:18:37;;;;;;;10.97;10.07;;;18.70;99.90;;;;;;5033892;28;20197;-81
2022/09/07 06:21:04;;;;;;;11.30;10.40;;;18.70;99.90;;;;;;5032864;28;20211;-80
2022/09/07 06:23:31;;;;;;;13.73;11.37;;;18.70;99.90;;;;;;5047655;28;20255;-79
2022/09/07 06:25:57;;;;;;;11.33;10.27;;;18.80;99.90;;;;;;5046470;28;20379;-81
2022/09/07 06:28:33;;;;;;;13.27;11.50;;;18.80;99.90;;;;;;5033263;28;20172;-82
2022/09/07 06:31:08;;;;;;;12.07;10.97;;;18.80;99.90;;;;;;5033147;28;20579;-80
2022/09/07 06:33:34;;;;;;;12.77;11.67;;;18.90;99.90;;;;;;5051196;28;20195;-81
2022/09/07 06:36:14;;;;;;;12.73;11.60;;;18.90;99.90;;;;;;5053784;28;20229;-81
2022/09/07 06:38:41;;;;;;;12.13;11.17;;;19.00;99.90;;;;;;5034793;28;20165;-81
2022/09/07 06:41:18;;;;;;;13.07;11.77;;;19.10;99.90;;;;;;5034168;28;20180;-81
2022/09/07 06:43:44;;;;;;;13.27;12.17;;;19.30;99.90;;;;;;5030242;28;20192;-82
2022/09/07 06:46:11;;;;;;;14.57;11.90;;;19.50;99.90;;;;;;5031336;28;20689;-82
2022/09/07 06:48:37;;;;;;;13.23;12.00;;;;;;;;;;5030384;28;20210;-82
2022/09/07 06:51:08;;;;;;;13.03;11.80;;;19.80;99.90;;;;;;5031372;28;20200;-81
2022/09/07 06:53:36;;;;;;;13.03;12.00;;;20.00;99.90;;;;;;5031573;28;20161;-82
2022/09/07 06:56:05;;;;;;;13.17;12.03;;;20.10;99.90;;;;;;5031298;28;20204;-81
2022/09/07 06:58:32;;;;;;;13.07;11.77;;;20.10;99.90;;;;;;5031436;28;20274;-81
2022/09/07 07:00:57;;;;;;;12.87;11.63;;;20.10;99.90;;;;;;5032290;28;20176;-81
2022/09/07 07:03:23;;;;;;;13.13;11.43;;;20.10;99.90;;;;;;5031602;28;20184;-81
2022/09/07 07:05:56;;;;;;;12.67;11.40;;;20.10;99.90;;;;;;5031294;28;20253;-81
2022/09/07 07:08:23;;;;;;;11.30;10.30;;;20.00;99.90;;;;;;5031638;28;20188;-80
2022/09/07 07:10:50;;;;;;;12.13;11.03;;;20.00;99.90;;;;;;5032627;28;20200;-81
2022/09/07 07:13:18;;;;;;;12.43;11.37;;;19.90;99.90;;;;;;5032509;28;20179;-82
2022/09/07 07:15:44;;;;;;;11.50;10.60;;;19.80;99.90;;;;;;5032098;28;20254;-80
2022/09/07 07:18:11;;;;;;;13.00;11.10;;;19.80;99.90;;;;;;5032716;28;20176;-80
2022/09/07 07:20:38;;;;;;;11.30;10.50;;;19.70;99.90;;;;;;5032200;28;20180;-82
2022/09/07 07:23:04;;;;;;;11.80;10.60;;;19.70;99.90;;;;;;5031509;28;20180;-82
2022/09/07 07:25:32;;;;;;;13.43;11.97;;;19.70;99.90;;;;;;5029551;28;20196;-82
2022/09/07 07:27:58;;;;;;;13.23;11.93;;;19.70;99.90;;;;;;5030782;28;20603;-81
2022/09/07 07:30:24;;;;;;;13.20;12.03;;;19.70;99.90;;;;;;5030353;28;20287;-82
2022/09/07 07:32:50;;;;;;;15.30;12.50;;;19.70;99.90;;;;;;5030504;28;20211;-82
2022/09/07 07:35:16;;;;;;;16.47;14.07;;;19.70;99.90;;;;;;5030372;28;20251;-82
2022/09/07 07:37:42;;;;;;;21.30;13.93;;;19.70;99.90;;;;;;5029052;28;20191;-81
2022/09/07 07:40:10;;;;;;;17.93;15.90;;;19.80;99.90;;;;;;5028518;28;20686;-82
2022/09/07 07:42:38;;;;;;;16.70;14.87;;;19.90;99.90;;;;;;5030743;28;20177;-81
2022/09/07 07:45:08;;;;;;;15.97;14.37;;;19.90;99.90;;;;;;5030525;28;20195;-82
2022/09/07 07:47:34;;;;;;;16.50;14.70;;;19.90;99.90;;;;;;5030120;28;20251;-82
2022/09/07 07:50:05;;;;;;;19.40;15.33;;;20.00;99.90;;;;;;5030277;28;20201;-80
2022/09/07 07:52:37;;;;;;;16.13;14.50;;;20.00;99.90;;;;;;5031027;28;20196;-81
2022/09/07 07:55:04;;;;;;;20.47;15.73;;;20.00;99.90;;;;;;5031007;28;20165;-81
2022/09/07 07:57:30;;;;;;;17.07;15.17;;;20.10;99.90;;;;;;5030647;28;20268;-82
2022/09/07 07:59:56;;;;;;;15.67;14.20;;;20.10;99.90;;;;;;5029892;28;20172;-82
2022/09/07 08:02:22;;;;;;;18.47;14.23;;;20.20;99.90;;;;;;5042775;28;20159;-81
2022/09/07 08:04:49;;;;;;;16.30;14.60;;;20.30;99.90;;;;;;5046622;28;20184;-82
2022/09/07 08:07:15;;;;;;;15.30;13.70;;;20.40;99.90;;;;;;5030428;28;20183;-82
2022/09/07 08:09:43;;;;;;;15.70;14.07;;;20.40;99.90;;;;;;5030239;28;20181;-82
2022/09/07 08:12:11;;;;;;;15.27;13.67;;;20.50;99.90;;;;;;5029113;28;20484;-83
2022/09/07 08:14:40;;;;;;;15.80;13.37;;;;;;;;;;5029837;28;20169;-83
2022/09/07 08:17:06;;;;;;;12.50;11.30;;;20.80;99.90;;;;;;5030170;28;20199;-82
2022/09/07 08:19:32;;;;;;;13.03;11.73;;;20.90;99.90;;;;;;5029875;28;20587;-82
2022/09/07 08:21:58;;;;;;;12.47;10.50;;;21.00;99.90;;;;;;5029904;28;20184;-83
2022/09/07 08:24:24;;;;;;;12.83;11.40;;;21.10;99.90;;;;;;5029944;28;20179;-83
2022/09/07 08:26:50;;;;;;;12.70;9.77;;;21.10;99.90;;;;;;5029953;28;20817;-82
2022/09/07 08:29:16;;;;;;;11.13;10.13;;;21.20;99.90;;;;;;5029789;28;20177;-83
2022/09/07 08:31:43;;;;;;;10.00;9.10;;;21.20;99.90;;;;;;5029618;28;20250;-82
2022/09/07 08:34:09;;;;;;;8.93;8.10;;;21.30;99.90;;;;;;5030024;28;20179;-82
2022/09/07 08:36:35;;;;;;;7.40;6.70;;;21.30;99.90;;;;;;5029639;28;20307;-82
2022/09/07 08:39:01;;;;;;;8.33;6.90;;;21.40;99.90;;;;;;5029718;28;20267;-81
2022/09/07 08:41:45;;;;;;;7.37;6.70;;;21.40;99.90;;;;;;5029891;28;20186;-82
2022/09/07 08:44:34;;;;;;;7.90;7.30;;;21.40;99.90;;;;;;5029685;28;20191;-82
2022/09/07 08:47:09;;;;;;;8.13;7.63;;;21.50;99.90;;;;;;5029469;28;20165;-81
2022/09/07 08:50:05;;;;;;;7.90;7.20;;;21.50;99.90;;;;;;5029525;28;20180;-81
2022/09/07 08:53:11;;;;;;;8.20;7.40;;;21.50;99.90;;;;;;5033330;28;20214;-82
2022/09/07 08:55:50;;;;;;;8.43;7.77;;;21.60;99.90;;;;;;5011413;28;20189;-83
2022/09/07 08:58:19;;;;;;;8.47;7.77;;;21.60;99.90;;;;;;5014160;28;20665;-81
2022/09/07 09:00:48;;;;;;;8.10;7.40;;;21.70;99.90;;;;;;5011202;28;20177;-81
2022/09/07 09:03:35;;;;;;;7.87;7.37;;;21.70;99.90;;;;;;5010724;28;20196;-81
2022/09/07 09:06:27;;;;;;;7.97;7.37;;;21.80;99.90;;;;;;5010970;28;20184;-81
2022/09/07 09:09:07;;;;;;;8.50;7.90;;;21.90;99.90;;;;;;5010928;28;20187;-82
2022/09/07 09:11:46;;;;;;;9.77;8.97;;;21.90;99.90;;;;;;5011314;28;20655;-82
2022/09/07 09:14:33;;;;;;;10.10;9.20;;;22.00;99.90;;;;;;5011206;28;20173;-81
2022/09/07 09:17:31;;;;;;;9.90;9.20;;;22.00;99.90;;;;;;5011176;28;20619;-82
2022/09/07 09:20:23;;;;;;;11.27;10.23;;;22.10;99.90;;;;;;4978205;28;20185;-82
2022/09/07 09:22:53;;;;;;;11.48;10.48;;;22.00;99.90;;;;;;5011151;28;20538;-83
2022/09/07 09:25:33;;;;;;;10.70;9.80;;;22.10;99.90;;;;;;5011192;28;20174;-81
2022/09/07 09:27:59;;;;;;;9.67;8.83;;;22.10;99.90;;;;;;5010874;28;20630;-81
2022/09/07 09:30:27;;;;;;;9.87;9.07;;;22.10;99.90;;;;;;5030051;28;20216;-81
2022/09/07 09:33:20;;;;;;;10.83;9.77;;;22.10;99.90;;;;;;5031723;28;20230;-82
2022/09/07 09:35:50;;;;;;;10.18;9.20;;;22.20;99.90;;;;;;5032671;28;20239;-82
2022/09/07 09:38:38;;;;;;;11.90;10.77;;;22.20;99.90;;;;;;5033227;28;20157;-81
2022/09/07 09:41:22;;;;;;;10.53;9.13;;;22.20;99.90;;;;;;5033909;28;20236;-81
2022/09/07 09:43:55;;;;;;;10.18;9.43;;;22.20;99.90;;;;;;5050684;28;20188;-82
2022/09/07 09:46:27;;;;;;;10.18;9.27;;;22.30;99.90;;;;;;5035471;28;20250;-81
2022/09/07 09:49:04;;;;;;;10.50;9.80;;;22.40;99.90;;;;;;5033163;28;20173;-82
2022/09/07 09:51:41;;;;;;;9.80;8.90;;;22.40;99.90;;;;;;5032696;28;20196;-83
2022/09/07 09:54:40;;;;;;;9.18;8.38;;;22.40;99.90;;;;;;5032623;28;20161;-81
2022/09/07 09:57:15;;;;;;;9.83;9.03;;;22.40;99.90;;;;;;5032617;28;20172;-82
2022/09/07 09:59:41;;;;;;;11.00;10.00;;;22.50;99.90;;;;;;5032427;28;20164;-83
2022/09/07 10:02:31;;;;;;;11.13;10.32;;;22.50;99.90;;;;;;5031574;28;20181;-82
2022/09/07 10:04:58;;;;;;;11.40;10.40;;;22.50;99.90;;;;;;5032424;28;20199;-81
2022/09/07 10:07:29;;;;;;;10.38;9.57;;;22.50;99.90;;;;;;5031861;28;20670;-83
2022/09/07 10:09:55;;;;;;;8.98;8.32;;;22.50;99.90;;;;;;5032394;28;20172;-82
2022/09/07 10:12:27;;;;;;;9.77;8.80;;;22.50;99.90;;;;;;5032008;28;20263;-82
2022/09/07 10:14:55;;;;;;;9.73;8.98;;;22.50;99.90;;;;;;5030509;28;20179;-82
2022/09/07 10:17:34;;;;;;;11.63;8.75;;;22.60;99.90;;;;;;5031920;28;20194;-82
2022/09/07 10:20:01;;;;;;;9.13;8.35;;;22.60;99.90;;;;;;5032172;28;20171;-82
2022/09/07 10:22:36;;;;;;;8.60;8.10;;;22.80;99.90;;;;;;5031885;28;20667;-83
2022/09/07 10:25:38;;;;;;;8.63;7.93;;;22.80;99.90;;;;;;5032019;28;20203;-83
2022/09/07 10:28:13;;;;;;;8.20;7.60;;;22.90;99.90;;;;;;5031896;28;20564;-83
2022/09/07 10:31:23;;;;;;;9.00;8.07;;;23.00;99.90;;;;;;5032356;28;20194;-83
2022/09/07 10:34:12;;;;;;;8.90;8.13;;;23.00;99.90;;;;;;5009708;28;20340;-83
2022/09/07 10:37:02;;;;;;;9.23;8.38;;;23.10;99.90;;;;;;5008939;28;20643;-81
2022/09/07 10:39:36;;;;;;;10.32;9.50;;;23.10;99.90;;;;;;5009514;28;20541;-82
2022/09/07 10:42:08;;;;;;;9.63;8.93;;;23.10;99.90;;;;;;5009369;28;20207;-82
2022/09/07 10:45:00;;;;;;;8.45;7.80;;;23.20;99.90;;;;;;5009280;28;20173;-82
2022/09/07 10:47:52;;;;;;;7.97;7.38;;;23.30;99.90;;;;;;5009131;28;20192;-83
2022/09/07 10:50:24;;;;;;;8.23;7.63;;;23.30;99.90;;;;;;5009125;28;20201;-82
2022/09/07 10:53:05;;;;;;;8.30;7.70;;;23.40;99.90;;;;;;5009156;28;20629;-82
2022/09/07 10:55:34;;;;;;;7.47;6.97;;;23.30;99.90;;;;;;5009017;28;20189;-83
2022/09/07 10:58:28;;;;;;;7.97;7.47;;;23.40;99.90;;;;;;5009114;28;20176;-82
2022/09/07 11:01:32;;;;;;;7.57;6.97;;;23.40;99.90;;;;;;5008683;28;20252;-83
2022/09/07 11:03:58;;;;;;;7.97;7.38;;;23.60;99.90;;;;;;5008691;28;20658;-83
2022/09/07 11:06:23;;;;;;;8.32;7.68;;;23.60;99.90;;;;;;5008659;28;20267;-82
2022/09/07 11:08:49;;;;;;;8.38;7.60;;;23.70;99.90;;;;;;5030454;28;20189;-82
2022/09/07 11:11:21;;;;;;;7.40;6.82;;;23.80;99.90;;;;;;5030993;28;20231;-81
2022/09/07 11:13:50;;;;;;;8.10;7.50;;;23.80;99.90;;;;;;5031865;28;20157;-81
2022/09/07 11:16:45;;;;;;;7.15;6.47;;;23.90;99.90;;;;;;5030786;28;20165;-81
2022/09/07 11:19:35;;;;;;;7.20;6.80;;;23.80;99.90;;;;;;5027705;28;20185;-81
2022/09/07 11:22:04;;;;;;;7.55;6.85;;;23.90;99.90;;;;;;5032854;28;20169;-81
2022/09/07 11:24:38;;;;;;;7.80;7.05;;;23.90;99.90;;;;;;5035730;28;20172;-83
2022/09/07 11:27:17;;;;;;;7.00;6.60;;;23.90;99.90;;;;;;5031380;28;20156;-82
2022/09/07 11:30:27;;;;;;;6.85;6.35;;;23.90;99.90;;;;;;5030454;28;20174;-83
2022/09/07 11:33:12;;;;;;;7.65;7.13;;;23.90;99.90;;;;;;5025869;28;20244;-82
2022/09/07 11:35:38;;;;;;;8.02;7.40;;;23.90;99.90;;;;;;5030211;28;20303;-82
2022/09/07 11:38:18;;;;;;;7.47;6.97;;;23.90;99.90;;;;;;5030368;28;20614;-82
2022/09/07 11:41:18;;;;;;;7.22;6.65;;;24.00;99.90;;;;;;5028906;28;20176;-82
2022/09/07 11:44:05;;;;;;;7.65;7.25;;;24.00;99.90;;;;;;5030692;28;20202;-81
2022/09/07 11:46:40;;;;;;;8.65;7.13;;;24.10;99.90;;;;;;5030545;28;20615;-82
2022/09/07 11:49:26;;;;;;;6.55;6.05;;;24.20;99.90;;;;;;5030348;28;20299;-83
2022/09/07 11:52:22;;;;;;;7.95;7.32;;;24.20;99.90;;;;;;5030401;28;20220;-81
2022/09/07 11:55:01;;;;;;;8.13;7.50;;;24.20;99.90;;;;;;5030384;28;20591;-82
2022/09/07 11:57:59;;;;;;;7.18;6.72;;;24.30;99.90;;;;;;5030216;28;20243;-82
2022/09/07 12:01:03;;;;;;;7.28;6.78;;;24.50;99.90;;;;;;5030012;28;20687;-82
2022/09/07 12:03:59;;;;;;;7.90;7.40;;;24.60;99.90;;;;;;5029977;28;20180;-82
2022/09/07 12:06:38;;;;;;;7.22;6.82;;;24.70;99.90;;;;;;5030155;28;20176;-83
2022/09/07 12:09:18;;;;;;;8.57;7.75;;;24.80;99.90;;;;;;5029929;28;20523;-83
2022/09/07 12:12:12;;;;;;;7.80;7.10;;;24.80;99.90;;;;;;5029999;28;20200;-82
2022/09/07 12:15:01;;;;;;;6.53;6.13;;;24.80;99.90;;;;;;5028769;28;20243;-83
2022/09/07 12:17:36;;;;;;;7.75;7.20;;;24.90;99.90;;;;;;5030174;28;20192;-81
2022/09/07 12:20:15;;;;;;;7.60;7.00;;;24.90;99.90;;;;;;5030703;28;20282;-81
2022/09/07 12:22:57;;;;;;;7.70;7.05;;;24.90;99.90;;;;;;5030129;28;20161;-83
2022/09/07 12:25:24;;;;;;;7.25;6.80;;;25.10;99.90;;;;;;5029232;28;20176;-82
2022/09/07 12:27:51;;;;;;;6.95;6.50;;;25.20;99.90;;;;;;5029915;28;20160;-83
2022/09/07 12:30:19;;;;;;;8.70;6.70;;;25.20;99.90;;;;;;5029714;28;20192;-84
2022/09/07 12:32:57;;;;;;;7.07;6.47;;;25.30;99.90;;;;;;5028314;28;20223;-82
2022/09/07 12:35:25;;;;;;;7.40;6.90;;;25.40;99.90;;;;;;5029552;28;20247;-84
2022/09/07 12:37:55;;;;;;;7.70;7.10;;;25.50;99.90;;;;;;5029823;28;20557;-83
2022/09/07 12:40:29;;;;;;;6.75;6.43;;;25.60;99.90;;;;;;5029815;28;20577;-83
2022/09/07 12:43:13;;;;;;;6.80;6.40;;;25.60;99.90;;;;;;5029559;28;20184;-83
2022/09/07 12:45:39;;;;;;;7.70;6.75;;;25.50;99.90;;;;;;5029502;28;20208;-84
2022/09/07 12:48:14;;;;;;;7.15;6.65;;;25.40;99.90;;;;;;5029463;28;20270;-82
2022/09/07 12:51:04;;;;;;;7.32;6.72;;;25.40;99.90;;;;;;5029499;28;20207;-83
2022/09/07 12:53:58;;;;;;;7.45;6.80;;;25.30;99.90;;;;;;5029741;28;20196;-82
2022/09/07 12:56:30;;;;;;;8.38;6.97;;;25.40;99.90;;;;;;5028445;28;20589;-82
2022/09/07 12:59:49;;;;;;;6.47;5.97;;;25.40;99.90;;;;;;5029531;28;20185;-81
2022/09/07 13:02:39;;;;;;;6.90;6.40;;;25.40;99.90;;;;;;5014451;28;20284;-82
2022/09/07 13:05:25;;;;;;;7.25;6.60;;;25.50;99.90;;;;;;5023181;28;20205;-81
2022/09/07 13:08:12;;;;;;;6.70;6.32;;;25.70;99.90;;;;;;5012954;28;20173;-82
2022/09/07 13:10:42;;;;;;;6.70;6.20;;;25.70;99.90;;;;;;5008015;28;20217;-82
2022/09/07 13:13:13;;;;;;;6.38;6.00;;;25.80;99.90;;;;;;5008186;28;20209;-81
2022/09/07 13:15:51;;;;;;;6.70;6.30;;;25.90;99.90;;;;;;5007444;28;20177;-81